East Gull Lake, Minnesota
Current Conditions -  °F | °C
As of 1:53 AM on Sunday 26 Oct 2014 (Local Time) from KBRD Reporting Station
Clear Clear  
Wind Chill: 33°   Ceiling: Unl
Heat Index: 33°   Visibility: 10mi
Dew Point: 27°   Wind: 3mph
Humidity: 78%   Direction: 200°SSW
Pressure: 30.02"   Gusts: NA
Location:  46.2895°N, 94.0683°W
Report Text: KBRD 260653Z AUTO 20003KT 10SM CLR 01/M03 A3002 RMK AO2 SLP173 T00061028
Loading
Personal Weather Stations






























Interactive Weather Map
Tropical Storm Tracking
New forecast layout! Learn more

10-Day Weather Forecast

Advertisements
Track Severe Weather on mobile